Time;durP1;ratioP1;P1;durP2;ratioP2;P2;SDS_P1;SDS_P2;PMS_P1;PMS_P2;Temp;Humidity;BMP_temperature;BMP_pressure;BME280_temperature;BME280_humidity;BME280_pressure;Samples;Min_cycle;Max_cycle;Signal;HPM_P1;HPM_P2
2021/11/16 08:30:37;;;;;;;49.40;33.00;;;;;;;2.46;82.54;99614.83;1858105;77;21021;-57
2021/11/16 08:33:03;;;;;;;36.28;24.40;;;;;;;2.53;82.58;99616.98;1858137;77;21123;-58
2021/11/16 08:35:30;;;;;;;36.53;23.50;;;;;;;2.63;82.44;99620.57;1859429;77;20915;-57
2021/11/16 08:38:07;;;;;;;36.60;25.23;;;;;;;2.69;82.25;99611.82;1860786;77;20908;-57
2021/11/16 08:40:36;;;;;;;36.53;25.02;;;;;;;2.76;81.79;99613.97;1860531;77;20975;-57
2021/11/16 08:43:12;;;;;;;38.78;24.50;;;;;;;2.80;81.69;99605.14;1860426;77;20954;-61
2021/11/16 08:45:38;;;;;;;32.88;23.95;;;;;;;2.84;81.51;99603.71;1859719;77;20969;-60
2021/11/16 08:48:09;;;;;;;33.15;23.52;;;;;;;2.90;81.39;99606.89;1858920;77;20931;-60
2021/11/16 08:50:44;;;;;;;33.63;24.23;;;;;;;2.92;81.10;99595.06;1859209;77;20989;-60
2021/11/16 08:53:30;;;;;;;35.45;25.02;;;;;;;2.95;80.95;99600.45;1860154;77;21030;-57
2021/11/16 08:55:57;;;;;;;36.70;25.12;;;;;;;2.98;80.93;99594.77;1859581;77;20974;-60
2021/11/16 08:58:28;;;;;;;34.53;24.95;;;;;;;3.00;80.74;99586.94;1859745;77;21089;-58
2021/11/16 09:01:05;;;;;;;36.23;23.50;;;;;;;3.02;80.53;99586.72;1858617;77;20954;-58
2021/11/16 09:03:42;;;;;;;32.88;24.43;;;;;;;3.02;80.49;99586.22;1858699;77;21112;-61
2021/11/16 09:06:22;;;;;;;34.78;24.27;;;;;;;3.04;80.50;99573.59;1857721;77;21500;-58
2021/11/16 09:09:06;;;;;;;38.00;24.63;;;;;;;3.09;80.47;99579.59;1831120;77;21109;-59
2021/11/16 09:11:33;;;;;;;41.63;25.60;;;;;;;3.09;80.48;99567.68;1856456;77;21085;-57
2021/11/16 09:14:00;;;;;;;44.33;32.48;;;;;;;3.16;80.42;99560.55;1858486;77;21038;-56
2021/11/16 09:16:28;;;;;;;39.15;26.93;;;;;;;3.18;80.11;99563.83;1799538;77;21521;-59
2021/11/16 09:18:57;;;;;;;45.48;32.67;;;;;;;3.18;80.14;99571.24;1860255;77;20904;-57
2021/11/16 09:21:45;;;;;;;39.38;25.95;;;;;;;3.20;80.01;99575.03;1859734;77;20970;-56
2021/11/16 09:24:16;;;;;;;39.33;29.48;;;;;;;3.22;79.84;99575.63;1776905;80;21944;-58
2021/11/16 09:26:57;;;;;;;39.23;25.43;;;;;;;3.21;79.75;99575.31;1777723;80;20928;-61
2021/11/16 09:29:20;;;;;;;;;;;;;;;3.19;79.80;99576.03;1781760;80;20983;-56
2021/11/16 09:32:02;;;;;;;30.43;23.60;;;;;;;3.18;79.79;99564.63;1739956;79;20403;-57
2021/11/16 09:34:32;;;;;;;34.95;25.17;;;;;;;3.20;79.70;99561.79;1768553;80;21564;-57
2021/11/16 09:37:12;;;;;;;36.70;25.72;;;;;;;3.20;79.79;99557.81;1823061;78;21289;-60
2021/11/16 09:39:47;;;;;;;35.92;24.75;;;;;;;3.20;79.86;99550.66;1809916;77;21078;-59
2021/11/16 09:42:17;;;;;;;39.60;26.25;;;;;;;3.25;79.70;99546.11;1796538;78;21034;-59
2021/11/16 09:44:52;;;;;;;125.07;43.90;;;;;;;3.28;79.77;99546.99;1796295;79;20935;-55
2021/11/16 09:47:28;;;;;;;37.33;26.10;;;;;;;3.33;79.65;99543.22;1809186;78;21054;-58
2021/11/16 09:49:59;;;;;;;36.93;25.50;;;;;;;3.37;79.45;99533.84;1790983;78;21105;-58
2021/11/16 09:52:45;;;;;;;37.88;25.60;;;;;;;3.40;79.30;99528.95;1802752;78;21470;-59
2021/11/16 09:55:20;;;;;;;37.05;26.57;;;;;;;3.44;79.31;99530.66;1795887;78;20924;-59
2021/11/16 09:57:52;;;;;;;35.78;25.72;;;;;;;3.46;79.05;99533.95;1795932;79;21445;-59
2021/11/16 10:00:39;;;;;;;39.67;26.12;;;;;;;3.45;78.83;99519.06;1795235;78;21118;-61
2021/11/16 10:03:13;;;;;;;37.85;24.87;;;;;;;3.43;78.74;99522.44;1795212;79;21105;-58
2021/11/16 10:05:51;;;;;;;36.58;25.55;;;;;;;3.45;78.83;99519.06;1762240;81;21001;-59
2021/11/16 10:08:19;;;;;;;38.30;24.72;;;;;;;3.49;78.81;99512.85;1793576;79;21115;-54
2021/11/16 10:10:49;;;;;;;35.13;25.95;;;;;;;3.51;78.80;99513.45;1794001;80;20943;-59
2021/11/16 10:13:23;;;;;;;37.30;26.37;;;;;;;3.53;78.77;99506.11;1794916;79;21061;-57
2021/11/16 10:15:53;;;;;;;41.00;26.68;;;;;;;3.56;78.77;99506.48;1809107;78;21841;-57
2021/11/16 10:18:21;;;;;;;34.60;24.02;;;;;;;3.64;78.69;99498.83;1778855;79;20966;-59
2021/11/16 10:20:48;;;;;;;37.13;25.23;;;;;;;3.65;78.34;99491.98;1794316;79;21451;-57
2021/11/16 10:23:34;;;;;;;38.10;24.77;;;;;;;3.63;78.26;99505.17;1802708;79;21535;-59
2021/11/16 10:26:01;;;;;;;39.50;26.05;;;;;;;3.61;78.37;99497.91;1781248;79;20912;-58
2021/11/16 10:28:29;;;;;;;36.00;26.75;;;;;;;3.63;78.34;99491.38;1812463;77;21057;-57
2021/11/16 10:30:59;;;;;;;39.45;26.85;;;;;;;3.65;78.43;99502.58;1786615;79;20982;-60
2021/11/16 10:33:29;;;;;;;36.05;25.90;;;;;;;3.72;78.47;99499.39;1810202;77;20965;-59
2021/11/16 10:36:06;;;;;;;35.00;25.52;;;;;;;3.76;78.28;99491.34;1794694;79;21068;-56
2021/11/16 10:38:48;;;;;;;37.63;24.77;;;;;;;3.83;78.15;99486.83;1813595;79;20883;-59
2021/11/16 10:41:28;;;;;;;41.05;25.55;;;;;;;3.87;77.88;99485.38;1779802;79;21072;-58
2021/11/16 10:43:58;;;;;;;41.75;27.32;;;;;;;3.89;77.86;99482.00;1796690;79;20939;-59
2021/11/16 10:46:28;;;;;;;35.17;27.00;;;;;;;3.93;77.86;99481.09;1807275;77;21005;-57
2021/11/16 10:48:56;;;;;;;39.08;26.35;;;;;;;3.97;77.86;99477.80;1779039;80;21009;-60
2021/11/16 10:51:32;;;;;;;43.50;26.33;;;;;;;4.03;77.57;99474.28;1809847;79;21053;-55
2021/11/16 10:54:00;;;;;;;37.05;27.17;;;;;;;4.06;77.42;99455.31;1812238;77;21075;-59
2021/11/16 10:56:34;;;;;;;34.60;25.50;;;;;;;4.08;77.17;99458.55;1809452;79;20969;-59
2021/11/16 10:59:12;;;;;;;33.92;25.12;;;;;;;4.09;77.06;99458.87;1811806;78;21001;-59
2021/11/16 11:01:52;;;;;;;39.13;27.13;;;;;;;4.12;77.11;99463.72;1809084;79;21556;-57
2021/11/16 11:04:22;;;;;;;38.17;26.68;;;;;;;4.14;77.00;99449.73;1809774;79;21065;-59
2021/11/16 11:06:51;;;;;;;34.40;25.15;;;;;;;4.13;76.86;99452.10;1809961;79;22163;-59
2021/11/16 11:09:18;;;;;;;37.20;26.77;;;;;;;4.17;76.90;99453.01;1810837;77;21013;-57
2021/11/16 11:11:47;;;;;;;35.05;25.05;;;;;;;4.21;76.88;99442.27;1797818;77;21032;-59
2021/11/16 11:14:17;;;;;;;35.33;24.77;;;;;;;4.24;76.68;99451.13;1807490;77;21062;-57
2021/11/16 11:17:06;;;;;;;33.78;25.00;;;;;;;4.25;76.53;99446.11;1809374;77;20989;-58
2021/11/16 11:19:40;;;;;;;32.53;25.55;;;;;;;4.26;76.38;99443.77;1810083;79;21029;-60
2021/11/16 11:22:19;;;;;;;36.28;26.42;;;;;;;4.24;76.38;99440.52;1809622;77;21070;-60
2021/11/16 11:24:48;;;;;;;43.55;27.52;;;;;;;4.23;76.33;99445.00;1808174;79;21500;-59
2021/11/16 11:29:53;;;;;;;35.35;23.07;;;;;;;4.29;76.34;99443.31;1773894;80;21070;-63
2021/11/16 11:32:22;;;;;;;34.05;23.45;;;;;;;4.32;76.26;99435.75;1774812;80;21125;-61
2021/11/16 11:35:00;;;;;;;34.92;25.75;;;;;;;4.33;76.13;99437.91;1801395;79;21019;-58
2021/11/16 11:37:46;;;;;;;34.08;25.43;;;;;;;4.35;76.21;99431.86;1811218;77;21536;-61
2021/11/16 11:40:19;;;;;;;33.60;25.10;;;;;;;4.39;76.00;99434.38;1800670;79;21002;-59
2021/11/16 11:42:56;;;;;;;36.93;26.57;;;;;;;4.38;75.99;99431.44;1777735;80;21068;-56
2021/11/16 11:45:36;;;;;;;34.80;25.32;;;;;;;4.36;75.79;99434.29;1812917;78;21061;-58
2021/11/16 11:48:09;;;;;;;33.15;23.90;;;;;;;4.33;75.74;99429.95;1812132;79;20950;-58
2021/11/16 11:50:41;;;;;;;38.63;24.65;;;;;;;4.28;75.88;99433.75;1811416;79;21500;-55
2021/11/16 11:53:11;;;;;;;33.70;23.85;;;;;;;4.26;76.03;99428.67;1810921;79;21487;-59
2021/11/16 11:55:42;;;;;;;34.35;25.25;;;;;;;4.26;76.04;99425.20;1804067;77;21462;-56
2021/11/16 11:58:10;;;;;;;35.63;26.07;;;;;;;4.27;76.12;99422.83;1810947;79;21123;-57
2021/11/16 12:00:38;;;;;;;35.35;26.70;;;;;;;4.27;76.09;99418.84;1810904;79;20980;-58
2021/11/16 12:03:18;;;;;;;39.10;27.67;;;;;;;4.27;76.12;99419.67;1798411;79;21761;-60
2021/11/16 12:05:54;;;;;;;35.83;25.80;;;;;;;4.29;75.90;99411.48;1800343;79;21031;-57
2021/11/16 12:08:24;;;;;;;40.12;28.35;;;;;;;4.27;75.87;99413.55;1798887;79;20991;-57
2021/11/16 12:10:51;;;;;;;44.80;28.92;;;;;;;4.24;75.91;99414.78;1798491;79;22239;-58
2021/11/16 12:13:26;;;;;;;38.00;29.27;;;;;;;4.23;75.94;99412.36;1797625;79;21051;-62
2021/11/16 12:16:06;;;;;;;40.83;29.65;;;;;;;4.21;76.03;99405.13;1798702;79;20991;-59
2021/11/16 12:18:46;;;;;;;46.40;31.20;;;;;;;4.20;76.11;99407.48;1798523;79;21060;-58
2021/11/16 12:21:29;;;;;;;40.15;30.82;;;;;;;4.20;76.04;99401.66;1799856;79;20939;-58
2021/11/16 12:24:03;;;;;;;46.45;31.35;;;;;;;4.22;76.00;99408.89;1798486;79;21243;-55
2021/11/16 12:26:34;;;;;;;39.50;29.80;;;;;;;4.22;75.99;99401.44;1798906;79;20999;-60
2021/11/16 12:29:17;;;;;;;42.05;29.50;;;;;;;4.22;76.05;99394.81;1799832;79;20924;-58
2021/11/16 12:31:46;;;;;;;36.83;29.00;;;;;;;4.24;76.10;99380.84;1800734;79;20999;-60
2021/11/16 12:34:37;;;;;;;44.23;29.57;;;;;;;4.28;75.98;99382.84;1800180;79;20976;-60
2021/11/16 12:37:08;;;;;;;40.83;29.45;;;;;;;4.30;75.91;99383.95;1799062;79;21099;-59
2021/11/16 12:39:37;;;;;;;41.15;29.50;;;;;;;4.29;75.72;99374.34;1801151;79;21769;-58
2021/11/16 12:42:12;;;;;;;43.05;27.82;;;;;;;4.29;75.62;99377.00;1774400;79;21473;-58
2021/11/16 12:44:50;;;;;;;39.38;26.82;;;;;;;4.27;75.65;99375.09;1801089;79;21032;-59
2021/11/16 12:47:16;;;;;;;38.55;26.25;;;;;;;4.25;75.63;99366.03;1800733;79;21023;-55
2021/11/16 12:49:45;;;;;;;36.48;25.72;;;;;;;4.25;75.64;99366.03;1800163;79;21221;-56
2021/11/16 12:52:15;;;;;;;37.75;27.22;;;;;;;4.25;75.62;99361.23;1799840;79;21079;-57
2021/11/16 12:54:44;;;;;;;55.05;33.33;;;;;;;4.24;75.66;99361.73;1800759;79;21416;-58
2021/11/16 12:57:21;;;;;;;50.48;33.08;;;;;;;4.23;75.41;99361.97;1792548;79;21488;-58
2021/11/16 12:59:51;;;;;;;50.12;34.10;;;;;;;4.21;75.59;99364.84;1788131;80;21114;-60
2021/11/16 13:02:35;;;;;;;79.55;59.85;;;;;;;4.22;75.62;99360.33;1788167;80;21120;-59
2021/11/16 13:05:10;;;;;;;57.13;41.85;;;;;;;4.20;75.64;99355.76;1792652;79;20994;-61
2021/11/16 13:07:44;;;;;;;39.05;30.70;;;;;;;4.20;75.75;99354.44;1811377;79;21026;-59
2021/11/16 13:10:20;;;;;;;40.50;28.75;;;;;;;4.23;75.70;99354.01;1784696;79;21096;-57
2021/11/16 13:13:05;;;;;;;52.53;36.63;;;;;;;4.20;75.55;99354.44;1811885;79;21026;-56
2021/11/16 13:15:53;;;;;;;47.08;35.08;;;;;;;4.20;75.66;99349.12;1780434;80;21716;-57
2021/11/16 13:18:38;;;;;;;39.45;29.75;;;;;;;4.24;75.61;99353.00;1801847;79;20886;-59
2021/11/16 13:21:28;;;;;;;38.20;31.12;;;;;;;4.21;75.49;99347.61;1813354;79;21011;-58
2021/11/16 13:24:05;;;;;;;42.65;30.20;;;;;;;4.21;75.47;99350.77;1813340;78;20891;-57
2021/11/16 13:26:49;;;;;;;35.68;27.02;;;;;;;4.19;75.49;99347.52;1812513;79;21062;-58
2021/11/16 13:29:32;;;;;;;35.55;25.68;;;;;;;4.20;75.39;99341.17;1779630;80;21125;-60
2021/11/16 13:32:09;;;;;;;37.42;25.32;;;;;;;4.18;75.17;99345.37;1749065;82;20983;-59
2021/11/16 13:34:44;;;;;;;38.13;24.75;;;;;;;4.17;75.20;99348.26;1781655;80;21014;-56
2021/11/16 13:37:21;;;;;;;36.38;26.50;;;;;;;4.13;75.15;99340.73;1752227;80;20897;-57
2021/11/16 13:39:50;;;;;;;29.55;22.77;;;;;;;4.14;75.23;99341.01;1812775;79;20955;-59
2021/11/16 13:42:23;;;;;;;35.55;26.10;;;;;;;4.18;74.99;99337.94;1812109;79;21077;-60
2021/11/16 13:44:55;;;;;;;35.58;25.30;;;;;;;4.14;74.77;99335.70;1814174;79;20908;-57
2021/11/16 13:47:34;;;;;;;36.73;24.80;;;;;;;4.10;74.87;99332.38;1811680;79;20895;-59
2021/11/16 13:50:28;;;;;;;32.73;23.70;;;;;;;4.05;74.85;99334.35;1787351;78;20920;-57
2021/11/16 13:52:59;;;;;;;33.15;26.57;;;;;;;3.99;74.98;99335.23;1786346;78;20876;-60
2021/11/16 13:55:31;;;;;;;37.38;26.65;;;;;;;3.99;75.19;99334.41;1813440;77;21450;-61
2021/11/16 13:58:06;;;;;;;34.53;26.10;;;;;;;4.00;75.30;99327.55;1810692;79;21468;-61
2021/11/16 14:00:40;;;;;;;35.92;25.65;;;;;;;4.03;75.21;99331.11;1814157;79;20879;-60
2021/11/16 14:03:12;;;;;;;33.63;24.47;;;;;;;4.04;75.17;99330.09;1780170;80;20967;-58
2021/11/16 14:05:46;;;;;;;37.70;26.82;;;;;;;3.99;75.19;99327.27;1786055;78;21019;-59
2021/11/16 14:08:17;;;;;;;38.08;25.62;;;;;;;3.97;75.33;99325.36;1803430;78;21623;-59
2021/11/16 14:10:47;;;;;;;31.60;23.57;;;;;;;3.94;75.28;99319.15;1787008;79;21376;-60
2021/11/16 14:13:29;;;;;;;40.70;24.80;;;;;;;3.95;75.36;99315.48;1812718;79;20954;-58
2021/11/16 14:16:07;;;;;;;33.58;24.63;;;;;;;3.96;75.41;99316.27;1811865;79;21495;-60
2021/11/16 14:23:58;;;;;;;33.25;25.25;;;;;;;3.91;75.34;99301.02;1752766;79;21273;-60
2021/11/16 14:26:28;;;;;;;43.08;27.10;;;;;;;3.87;75.38;99305.13;1789665;79;20982;-58
2021/11/16 14:28:54;;;;;;;38.45;25.57;;;;;;;3.86;75.47;99299.52;1814075;79;20864;-57
2021/11/16 14:31:31;;;;;;;31.90;22.98;;;;;;;3.84;75.46;99292.30;1803738;78;20998;-58
2021/11/16 14:34:02;;;;;;;39.67;24.10;;;;;;;3.81;75.46;99292.75;1779841;79;21511;-59
